Time;durP1;ratioP1;P1;durP2;ratioP2;P2;SDS_P1;SDS_P2;PMS_P1;PMS_P2;Temp;Humidity;BMP_temperature;BMP_pressure;BME280_temperature;BME280_humidity;BME280_pressure;Samples;Min_cycle;Max_cycle;Signal;HPM_P1;HPM_P2
2022/12/27 00:00:21;;;;;;;2.00;1.20;;;;;;;5.87;100.00;98991.03;5096563;28;20202;-81
2022/12/27 00:02:49;;;;;;;1.97;1.30;;;;;;;5.84;100.00;98987.66;5096845;28;20265;-80
2022/12/27 00:05:16;;;;;;;2.00;1.20;;;;;;;5.74;100.00;98994.13;5096571;28;20226;-81
2022/12/27 00:07:43;;;;;;;2.83;1.43;;;;;;;5.67;100.00;98998.72;5094620;28;20566;-80
2022/12/27 00:10:11;;;;;;;1.87;1.30;;;;;;;5.62;100.00;98998.03;5087316;28;20201;-81
2022/12/27 00:12:38;;;;;;;2.40;1.30;;;;;;;5.59;100.00;99003.41;5096712;28;20201;-81
2022/12/27 00:15:05;;;;;;;1.00;0.97;;;;;;;5.54;100.00;99002.72;5096651;28;20265;-81
2022/12/27 00:17:32;;;;;;;3.37;1.40;;;;;;;5.47;100.00;99006.47;5096754;28;20244;-80
2022/12/27 00:20:00;;;;;;;2.17;1.20;;;;;;;5.45;100.00;99012.66;5095882;28;20214;-80
2022/12/27 00:22:26;;;;;;;8.80;1.70;;;;;;;5.39;100.00;99016.38;5096420;28;20195;-80
2022/12/27 00:24:53;;;;;;;1.47;1.10;;;;;;;5.34;100.00;99020.91;5096349;28;20238;-80
2022/12/27 00:27:19;;;;;;;2.60;1.10;;;;;;;5.34;100.00;99026.16;5096413;28;20220;-81
2022/12/27 00:29:46;;;;;;;1.20;1.10;;;;;;;5.29;100.00;99033.31;5098509;28;20253;-81
2022/12/27 00:32:12;;;;;;;4.37;1.30;;;;;;;5.23;100.00;99033.50;5097877;28;20211;-79
2022/12/27 00:34:39;;;;;;;3.00;1.40;;;;;;;5.17;100.00;99038.97;5089120;28;20205;-80
2022/12/27 00:37:07;;;;;;;1.57;1.20;;;;;;;5.14;100.00;99036.44;5095431;28;20277;-80
2022/12/27 00:39:33;;;;;;;2.30;1.20;;;;;;;5.12;100.00;99034.78;5099466;28;20198;-81
2022/12/27 00:42:00;;;;;;;3.53;1.30;;;;;;;5.08;100.00;99039.25;5099838;28;20191;-81
2022/12/27 00:44:26;;;;;;;2.73;1.57;;;;;;;5.02;100.00;99039.44;5090990;28;20223;-81
2022/12/27 00:46:53;;;;;;;1.73;1.00;;;;;;;5.08;100.00;99039.25;5085829;28;20228;-80
2022/12/27 00:49:19;;;;;;;1.93;1.10;;;;;;;5.11;100.00;99039.16;5084863;28;20224;-81
2022/12/27 00:51:45;;;;;;;2.33;1.27;;;;;;;5.06;100.00;99025.34;5084649;28;20213;-80
2022/12/27 00:54:13;;;;;;;3.77;1.30;;;;;;;5.03;100.00;99030.72;5084272;28;20212;-80
2022/12/27 00:56:40;;;;;;;1.60;1.20;;;;;;;5.03;100.00;99024.59;5084058;28;20678;-81
2022/12/27 00:59:07;;;;;;;1.83;1.07;;;;;;;4.94;100.00;99035.41;5089705;28;20209;-81
2022/12/27 01:01:35;;;;;;;2.93;1.30;;;;;;;4.93;100.00;99034.53;5085914;28;20332;-81
2022/12/27 01:04:03;;;;;;;2.43;1.40;;;;;;;4.84;100.00;99042.66;5082901;28;20231;-80
2022/12/27 01:06:32;;;;;;;3.23;1.10;;;;;;;4.71;100.00;99051.81;5083211;28;20244;-81
2022/12/27 01:09:00;;;;;;;3.87;1.13;;;;;;;4.63;100.00;99048.59;5084294;28;20204;-81
2022/12/27 01:11:28;;;;;;;5.00;1.20;;;;;;;4.66;100.00;99043.28;5084907;28;20212;-80
2022/12/27 01:13:56;;;;;;;1.13;1.03;;;;;;;4.59;100.00;99039.09;5084875;28;20208;-81
2022/12/27 01:16:24;;;;;;;1.37;1.23;;;;;;;4.52;100.00;99034.97;5087170;28;20232;-81
2022/12/27 01:18:51;;;;;;;4.20;1.43;;;;;;;4.42;100.00;99046.66;5088570;28;20212;-80
2022/12/27 01:21:19;;;;;;;1.90;1.00;;;;;;;4.33;100.00;99060.00;5085073;28;20211;-80
2022/12/27 01:23:45;;;;;;;1.80;1.00;;;;;;;4.30;100.00;99065.34;5089951;28;20204;-80
2022/12/27 01:26:15;;;;;;;2.40;0.90;;;;;;;4.26;100.00;99068.06;5084594;28;20236;-81
2022/12/27 01:28:43;;;;;;;3.43;0.90;;;;;;;4.25;100.00;99075.06;5092621;28;20216;-81
2022/12/27 01:31:12;;;;;;;3.30;0.93;;;;;;;4.23;100.00;99081.25;5087878;28;20639;-81
2022/12/27 01:33:39;;;;;;;3.23;1.13;;;;;;;4.13;100.00;99096.34;5076269;28;20212;-81
2022/12/27 01:36:10;;;;;;;1.63;0.90;;;;;;;4.11;100.00;99108.63;5089394;28;20223;-81
2022/12/27 01:38:36;;;;;;;1.67;0.90;;;;;;;3.97;100.00;99126.44;5084129;28;20688;-81
2022/12/27 01:42:50;;;;;;;1.97;1.20;;;;;;;3.95;100.00;99143.06;5078786;28;20214;-81
2022/12/27 01:43:50;;;;;;;1.93;1.20;;;;;;;3.92;100.00;99159.69;5093714;28;20206;-81
2022/12/27 01:46:17;;;;;;;1.33;1.20;;;;;;;3.87;100.00;99161.59;5090282;28;20231;-80
2022/12/27 01:48:44;;;;;;;2.00;1.10;;;;;;;3.76;100.00;99163.63;5077606;28;20222;-81
2022/12/27 01:51:12;;;;;;;2.90;1.20;;;;;;;3.70;100.00;99178.59;5073855;28;20214;-80
2022/12/27 01:53:42;;;;;;;1.33;1.20;;;;;;;3.65;100.00;99177.84;5074088;28;20208;-80
2022/12/27 01:56:15;;;;;;;3.20;1.07;;;;;;;3.58;100.00;99184.16;5073578;28;20243;-80
2022/12/27 01:58:45;;;;;;;2.40;1.17;;;;;;;3.55;100.00;99190.31;5073968;28;20208;-81
2022/12/27 02:01:16;;;;;;;3.00;1.40;;;;;;;3.53;100.00;99197.34;5072675;28;20204;-81
2022/12/27 02:03:48;;;;;;;2.47;1.30;;;;;;;3.49;100.00;99198.28;5073004;28;20199;-80
2022/12/27 02:06:16;;;;;;;3.43;1.47;;;;;;;3.44;100.00;99202.81;5073438;28;20330;-81
2022/12/27 02:08:51;;;;;;;2.67;1.20;;;;;;;3.47;100.00;99192.25;5073367;28;20210;-81
2022/12/27 02:11:49;;;;;;;1.63;1.20;;;;;;;3.46;100.00;99195.78;5073444;28;20269;-81
2022/12/27 02:14:10;;;;;;;2.33;1.30;;;;;;;3.45;100.00;99199.28;5073031;28;20258;-80
2022/12/27 02:16:38;;;;;;;3.37;1.30;;;;;;;3.43;100.00;99190.59;5072949;28;20235;-79
2022/12/27 02:19:09;;;;;;;2.80;1.40;;;;;;;3.35;100.00;99195.16;5072993;28;20208;-81
2022/12/27 02:22:08;;;;;;;3.20;1.40;;;;;;;3.33;100.00;99204.81;5072877;28;20208;-80
2022/12/27 02:24:57;;;;;;;2.40;1.53;;;;;;;3.27;100.00;99215.41;5065146;28;20203;-80
2022/12/27 02:27:38;;;;;;;3.37;1.40;;;;;;;3.20;100.00;99219.03;5072155;28;20318;-79
2022/12/27 02:30:08;;;;;;;2.83;1.30;;;;;;;3.17;100.00;99224.31;5071914;28;20215;-81
2022/12/27 02:32:40;;;;;;;3.70;1.60;;;;;;;3.16;100.00;99233.06;5072279;28;20718;-80
2022/12/27 02:35:14;;;;;;;2.60;1.20;;;;;;;3.14;100.00;99233.97;5072466;28;20231;-80
2022/12/27 02:37:46;;;;;;;2.10;1.37;;;;;;;3.08;100.00;99229.78;5072243;28;20578;-80
2022/12/27 02:54:39;;;;;;;4.07;1.50;;;;;;;2.62;100.00;99230.75;5071636;28;20228;-80
2022/12/27 02:57:19;;;;;;;3.67;1.50;;;;;;;2.51;100.00;99236.19;5071640;28;20235;-80
2022/12/27 03:03:22;;;;;;;3.90;1.33;;;;;;;2.43;100.00;99239.84;5071708;28;20206;-81
2022/12/27 03:09:08;;;;;;;2.27;1.40;;;;;;;2.39;100.00;99236.44;5047836;28;20261;-79
2022/12/27 03:17:26;;;;;;;2.40;1.37;;;;;;;2.37;100.00;99242.56;5071440;28;20244;-82
2022/12/27 03:25:34;;;;;;;3.13;1.80;;;;;;;2.30;100.00;99252.28;5071298;28;20276;-82
2022/12/27 03:33:42;;;;;;;3.33;1.77;;;;;;;2.28;100.00;99254.03;5071450;28;20284;-81
2022/12/27 03:39:07;;;;;;;3.77;1.50;;;;;;;2.26;100.00;99255.81;5071021;28;20346;-80
2022/12/27 03:44:24;;;;;;;2.70;1.83;;;;;;;2.18;100.00;99268.16;5071298;28;20218;-80
2022/12/27 03:46:54;;;;;;;2.80;1.63;;;;;;;2.16;100.00;99269.06;5071396;28;20599;-80
2022/12/27 03:49:25;;;;;;;4.20;1.80;;;;;;;2.09;100.00;99265.69;5070855;28;20212;-81
2022/12/27 03:51:59;;;;;;;4.13;1.40;;;;;;;2.12;100.00;99278.69;5071289;28;20561;-80
2022/12/27 03:54:29;;;;;;;2.33;1.27;;;;;;;2.11;100.00;99271.75;5071118;28;20206;-82
2022/12/27 03:56:58;;;;;;;2.70;1.33;;;;;;;2.15;100.00;99268.19;5071137;28;20232;-80
2022/12/27 03:59:24;;;;;;;2.80;1.70;;;;;;;2.12;100.00;99268.25;5071229;28;20207;-80
2022/12/27 04:01:51;;;;;;;1.20;1.10;;;;;;;2.18;100.00;99272.50;5071487;28;20208;-81
2022/12/27 04:04:18;;;;;;;2.00;1.40;;;;;;;2.20;100.00;99271.56;5072734;28;20218;-81
2022/12/27 04:06:44;;;;;;;3.07;1.37;;;;;;;2.24;100.00;99270.66;5074997;28;20231;-80
2022/12/27 04:36:34;;;;;;;2.90;1.50;;;;;;;2.03;100.00;99262.34;5074317;28;20268;-80
2022/12/27 04:39:01;;;;;;;3.37;1.57;;;;;;;1.95;100.00;99254.66;5074303;28;20208;-83
2022/12/27 04:55:18;;;;;;;2.70;1.50;;;;;;;1.85;100.00;99279.13;5074824;28;20313;-81
2022/12/27 04:57:46;;;;;;;2.43;1.37;;;;;;;1.80;100.00;99269.69;5073816;28;20211;-80
2022/12/27 05:02:59;;;;;;;3.87;1.60;;;;;;;1.76;100.00;99270.63;5074161;28;20213;-80
2022/12/27 05:05:26;;;;;;;1.30;1.20;;;;;;;1.76;100.00;99268.88;5073685;28;20215;-80
2022/12/27 05:16:07;;;;;;;1.37;1.27;;;;;;;1.83;100.00;99285.28;5073357;28;20225;-80
2022/12/27 05:18:33;;;;;;;1.90;1.50;;;;;;;1.78;100.00;99282.72;5073571;28;20215;-80
2022/12/27 05:21:02;;;;;;;2.77;1.37;;;;;;;1.76;100.00;99283.63;5073009;28;20215;-80
2022/12/27 05:26:18;;;;;;;2.37;1.30;;;;;;;1.77;100.00;99301.88;5073089;28;20234;-80
2022/12/27 05:28:46;;;;;;;2.13;1.50;;;;;;;1.72;100.00;99289.81;5073022;28;20576;-80
2022/12/27 05:31:13;;;;;;;2.90;1.47;;;;;;;1.71;100.00;99299.34;5073197;28;20306;-80
2022/12/27 05:33:39;;;;;;;1.97;1.70;;;;;;;1.71;100.00;99301.97;5073260;28;20207;-80
2022/12/27 05:36:07;;;;;;;1.93;1.50;;;;;;;1.73;100.00;99299.34;5073120;28;20223;-80
2022/12/27 05:38:33;;;;;;;1.80;1.70;;;;;;;1.73;100.00;99304.56;5073231;28;20214;-80
2022/12/27 05:41:01;;;;;;;2.63;1.27;;;;;;;1.73;100.00;99305.41;5072694;28;20207;-80
2022/12/27 05:43:28;;;;;;;2.90;1.37;;;;;;;1.74;100.00;99306.28;5073431;28;20240;-80
2022/12/27 05:46:01;;;;;;;3.03;2.00;;;;;;;1.78;100.00;99308.81;5073446;28;20253;-80
2022/12/27 05:48:28;;;;;;;2.03;1.63;;;;;;;1.75;100.00;99313.19;5073713;28;20207;-81
2022/12/27 05:50:55;;;;;;;4.90;1.80;;;;;;;1.71;100.00;99309.78;5073397;28;20208;-80
2022/12/27 05:53:21;;;;;;;2.67;1.63;;;;;;;1.75;100.00;99316.69;5073413;28;20572;-80
2022/12/27 05:55:53;;;;;;;2.47;1.60;;;;;;;1.70;100.00;99320.22;5090000;22;20234;-81
2022/12/27 05:58:20;;;;;;;4.67;1.83;;;;;;;1.69;100.00;99322.00;5071825;28;20219;-81
2022/12/27 06:00:47;;;;;;;2.57;1.40;;;;;;;1.60;100.00;99322.09;5071538;28;20230;-81
2022/12/27 06:03:14;;;;;;;2.93;1.80;;;;;;;1.52;100.00;99326.59;5072456;28;20215;-80
2022/12/27 06:05:41;;;;;;;3.43;1.70;;;;;;;1.49;100.00;99321.44;5072183;28;20210;-80
2022/12/27 06:08:08;;;;;;;2.00;1.70;;;;;;;1.50;100.00;99328.34;5072415;28;20208;-80
2022/12/27 06:10:35;;;;;;;4.40;1.97;;;;;;;1.51;100.00;99324.88;5071995;28;20657;-81
2022/12/27 06:13:02;;;;;;;4.00;1.87;;;;;;;1.61;100.00;99329.03;5072287;28;20681;-80
2022/12/27 06:15:28;;;;;;;3.53;1.80;;;;;;;1.64;100.00;99321.19;5072493;28;20219;-80
2022/12/27 06:17:55;;;;;;;3.00;1.70;;;;;;;1.67;100.00;99326.34;5072274;28;20234;-80
2022/12/27 06:20:23;;;;;;;1.63;1.50;;;;;;;1.71;100.00;99321.97;5071884;28;20233;-81
2022/12/27 06:22:49;;;;;;;3.50;1.50;;;;;;;1.68;100.00;99328.09;5072329;28;20210;-81
2022/12/27 06:25:16;;;;;;;3.97;2.37;;;;;;;1.64;100.00;99326.41;5072769;28;20215;-81
2022/12/27 06:27:42;;;;;;;2.17;1.83;;;;;;;1.67;100.00;99330.72;5071996;28;20236;-81
2022/12/27 06:30:11;;;;;;;1.70;1.47;;;;;;;1.68;100.00;99333.31;5072637;28;20681;-80
2022/12/27 06:32:37;;;;;;;2.37;1.50;;;;;;;1.65;100.00;99337.69;5076719;28;20203;-80
2022/12/27 06:35:05;;;;;;;2.27;1.80;;;;;;;1.63;100.00;99323.81;5075518;28;20233;-81
2022/12/27 06:37:32;;;;;;;3.23;1.80;;;;;;;1.59;100.00;99328.22;5076286;28;20227;-80
2022/12/27 06:39:59;;;;;;;3.30;1.83;;;;;;;1.60;100.00;99336.91;5077217;28;20215;-80
2022/12/27 06:42:25;;;;;;;3.30;1.90;;;;;;;1.58;100.00;99339.53;5077565;28;20211;-79
2022/12/27 06:44:52;;;;;;;3.10;1.60;;;;;;;1.53;100.00;99338.72;5073742;28;20216;-81
2022/12/27 06:47:18;;;;;;;3.70;1.80;;;;;;;1.48;100.00;99337.91;5071673;28;20231;-81
2022/12/27 06:49:45;;;;;;;2.80;1.60;;;;;;;1.44;100.00;99336.25;5071146;28;20207;-80
2022/12/27 06:52:11;;;;;;;4.10;2.20;;;;;;;1.38;100.00;99344.16;5071439;28;20218;-80
2022/12/27 06:54:40;;;;;;;4.70;1.77;;;;;;;1.38;100.00;99344.16;5071681;28;20204;-81
2022/12/27 06:57:06;;;;;;;2.53;1.63;;;;;;;1.39;100.00;99345.88;5071366;28;20713;-81
2022/12/27 06:59:33;;;;;;;3.60;1.80;;;;;;;1.37;100.00;99346.78;5071367;28;20215;-81
2022/12/27 07:01:59;;;;;;;2.93;1.87;;;;;;;1.40;100.00;99342.38;5071658;28;20215;-81
2022/12/27 07:04:26;;;;;;;3.77;1.60;;;;;;;1.39;100.00;99355.41;5071347;28;20218;-81
2022/12/27 07:06:52;;;;;;;2.67;2.03;;;;;;;1.43;100.00;99355.38;5071745;28;20239;-81
2022/12/27 07:09:19;;;;;;;3.50;2.00;;;;;;;1.39;100.00;99361.50;5071264;28;20302;-81
2022/12/27 07:11:47;;;;;;;2.80;1.97;;;;;;;1.39;100.00;99364.09;5071446;28;20215;-80
2022/12/27 07:14:13;;;;;;;10.00;6.40;;;;;;;1.39;100.00;99366.72;5071413;28;20237;-80
2022/12/27 07:16:40;;;;;;;3.13;2.30;;;;;;;1.38;100.00;99370.22;5071331;28;20224;-81
2022/12/27 07:19:06;;;;;;;3.63;2.27;;;;;;;1.38;100.00;99371.94;5070963;28;20211;-80
2022/12/27 07:21:33;;;;;;;2.53;2.03;;;;;;;1.37;100.00;99365.00;5071482;28;20215;-81
2022/12/27 07:23:59;;;;;;;3.10;2.27;;;;;;;1.40;100.00;99363.22;5071508;28;20211;-80
2022/12/27 07:26:28;;;;;;;7.47;2.40;;;;;;;1.41;100.00;99364.94;5071351;28;20238;-81
2022/12/27 07:28:58;;;;;;;3.07;2.17;;;;;;;1.47;100.00;99369.22;5071067;28;20234;-80
2022/12/27 07:31:28;;;;;;;3.30;2.03;;;;;;;1.49;100.00;99363.13;5071207;28;20203;-81
2022/12/27 07:33:55;;;;;;;3.33;1.80;;;;;;;1.61;100.00;99362.91;5071454;28;20311;-81
2022/12/27 07:36:24;;;;;;;3.43;2.10;;;;;;;1.68;100.00;99364.56;5071261;28;20223;-81
2022/12/27 07:38:51;;;;;;;3.00;1.93;;;;;;;1.68;100.00;99369.78;5073664;28;20290;-81
2022/12/27 07:41:18;;;;;;;3.30;2.20;;;;;;;1.62;100.00;99375.09;5075313;28;20560;-82
2022/12/27 07:43:45;;;;;;;2.73;1.77;;;;;;;1.64;100.00;99377.63;5075186;28;20247;-81
2022/12/27 07:46:14;;;;;;;2.70;1.90;;;;;;;1.66;100.00;99379.34;5074869;28;20227;-81
2022/12/27 07:48:41;;;;;;;2.90;2.23;;;;;;;1.65;100.00;99372.41;5075169;28;20212;-81
2022/12/27 07:51:08;;;;;;;3.40;2.10;;;;;;;1.68;100.00;99377.59;5075052;28;20207;-83
2022/12/27 07:53:35;;;;;;;5.73;2.60;;;;;;;1.72;100.00;99386.22;5075084;28;20210;-80
2022/12/27 07:56:06;;;;;;;5.00;2.03;;;;;;;1.72;100.00;99371.44;5075020;28;20231;-81
2022/12/27 07:58:36;;;;;;;5.33;1.90;;;;;;;1.78;100.00;99366.13;5075025;28;20211;-80
2022/12/27 08:01:03;;;;;;;2.60;1.77;;;;;;;1.80;100.00;99369.59;5075045;28;20207;-81
2022/12/27 08:03:31;;;;;;;5.23;1.70;;;;;;;1.83;100.00;99364.31;5075166;28;20215;-81
2022/12/27 08:05:58;;;;;;;2.43;1.90;;;;;;;1.89;100.00;99366.00;5074997;28;20231;-81
2022/12/27 08:08:30;;;;;;;3.57;1.70;;;;;;;1.92;100.00;99364.22;5074933;28;20227;-81
2022/12/27 08:10:57;;;;;;;3.37;1.70;;;;;;;1.96;100.00;99362.41;5074658;28;20218;-81
2022/12/27 08:13:24;;;;;;;2.33;1.90;;;;;;;1.96;100.00;99363.25;5074894;28;20210;-80
2022/12/27 08:15:52;;;;;;;2.73;1.60;;;;;;;1.99;100.00;99368.44;5077160;28;20207;-80
2022/12/27 08:18:18;;;;;;;4.47;1.67;;;;;;;2.02;100.00;99370.97;5076108;28;20204;-81
2022/12/27 08:20:46;;;;;;;2.73;1.60;;;;;;;2.03;100.00;99364.88;5074667;28;20222;-81
2022/12/27 08:23:12;;;;;;;4.97;1.77;;;;;;;2.04;100.00;99371.84;5074372;28;20210;-81
2022/12/27 08:25:39;;;;;;;3.07;1.60;;;;;;;2.14;100.00;99373.38;5074287;28;20236;-80
2022/12/27 08:28:07;;;;;;;4.10;1.80;;;;;;;2.18;100.00;99380.28;5074363;28;20231;-81
2022/12/27 08:30:34;;;;;;;2.50;1.83;;;;;;;2.22;100.00;99374.16;5074333;28;20207;-81
2022/12/27 08:33:01;;;;;;;2.90;1.87;;;;;;;2.32;100.00;99380.91;5074464;28;20225;-81
2022/12/27 08:35:28;;;;;;;2.00;1.80;;;;;;;2.33;100.00;99366.97;5074295;28;20256;-80
2022/12/27 08:37:55;;;;;;;4.90;1.73;;;;;;;2.37;100.00;99368.66;5074194;28;20224;-80
2022/12/27 08:40:22;;;;;;;2.33;2.13;;;;;;;2.41;100.00;99359.91;5073896;28;20211;-80
2022/12/27 08:42:49;;;;;;;2.60;1.90;;;;;;;2.44;100.00;99364.22;5073913;28;20262;-82
2022/12/27 08:45:15;;;;;;;2.47;2.00;;;;;;;2.49;100.00;99363.22;5074270;28;20820;-78
2022/12/27 08:47:42;;;;;;;2.17;1.80;;;;;;;2.55;100.00;99373.56;5074010;28;20242;-81
2022/12/27 08:50:09;;;;;;;2.33;1.90;;;;;;;2.62;100.00;99369.06;5073202;28;20214;-77
2022/12/27 08:52:35;;;;;;;7.27;2.10;;;;;;;2.64;100.00;99373.38;5073954;28;20674;-81
2022/12/27 08:55:04;;;;;;;3.17;1.70;;;;;;;2.65;100.00;99380.34;5073824;28;20212;-82
2022/12/27 08:57:30;;;;;;;2.83;1.90;;;;;;;2.64;100.00;99378.59;5073703;28;20235;-82
2022/12/27 08:59:57;;;;;;;2.00;1.80;;;;;;;2.65;100.00;99390.78;5073450;28;20694;-81
2022/12/27 09:02:23;;;;;;;2.90;1.80;;;;;;;2.69;100.00;99386.38;5073806;28;20207;-83
2022/12/27 09:04:50;;;;;;;2.50;2.10;;;;;;;2.68;100.00;99385.50;5073682;28;20211;-82
2022/12/27 09:07:16;;;;;;;3.50;1.73;;;;;;;2.68;100.00;99380.28;5073600;28;20698;-81
2022/12/27 09:09:43;;;;;;;5.40;2.07;;;;;;;2.70;100.00;99394.16;5073530;28;20211;-81
2022/12/27 09:12:11;;;;;;;2.43;1.90;;;;;;;2.78;100.00;99394.88;5073586;28;20207;-82
2022/12/27 09:14:37;;;;;;;2.13;1.63;;;;;;;2.81;100.00;99397.44;5073601;28;20208;-81
2022/12/27 09:17:05;;;;;;;3.60;1.80;;;;;;;2.88;100.00;99396.41;5073426;28;20227;-82
2022/12/27 09:19:32;;;;;;;4.13;2.00;;;;;;;3.00;100.00;99403.19;5073292;28;20300;-81
2022/12/27 09:21:58;;;;;;;3.07;2.57;;;;;;;3.04;100.00;99392.63;5073397;28;20521;-82
2022/12/27 09:24:25;;;;;;;4.07;1.70;;;;;;;3.08;100.00;99391.69;5073577;28;20207;-80
2022/12/27 09:26:51;;;;;;;2.20;1.63;;;;;;;3.11;100.00;99396.84;5073058;28;20223;-82
2022/12/27 09:29:19;;;;;;;2.63;1.90;;;;;;;3.12;100.00;99392.50;5072806;28;20241;-81
2022/12/27 09:31:46;;;;;;;2.67;2.13;;;;;;;3.23;100.00;99396.59;5073325;28;20215;-81
2022/12/27 09:34:13;;;;;;;3.47;1.90;;;;;;;3.28;100.00;99399.13;5072304;28;20434;-80
2022/12/27 09:36:40;;;;;;;3.87;2.17;;;;;;;3.26;100.00;99399.16;5071039;28;20232;-80
2022/12/27 09:39:08;;;;;;;3.37;2.07;;;;;;;3.31;100.00;99397.28;5071955;28;20214;-79
2022/12/27 09:41:48;;;;;;;4.60;2.53;;;;;;;3.37;100.00;99405.00;5072584;28;20219;-80
2022/12/27 09:44:23;;;;;;;4.23;2.17;;;;;;;3.38;100.00;99396.31;5073088;28;20211;-80
2022/12/27 09:46:54;;;;;;;4.13;2.50;;;;;;;3.41;100.00;99400.59;5070534;28;20232;-80
2022/12/27 09:49:27;;;;;;;3.53;2.37;;;;;;;3.45;100.00;99413.56;5071490;28;20230;-77
2022/12/27 09:52:00;;;;;;;3.60;2.50;;;;;;;3.47;100.00;99406.56;5069329;28;20204;-78
2022/12/27 09:54:31;;;;;;;4.43;2.20;;;;;;;3.55;100.00;99409.84;5072668;28;20294;-81
2022/12/27 09:57:00;;;;;;;3.40;2.60;;;;;;;3.58;100.00;99404.59;5072434;28;20751;-81
2022/12/27 09:59:33;;;;;;;6.13;3.10;;;;;;;3.71;100.00;99402.53;5072260;28;20219;-82
2022/12/27 10:01:59;;;;;;;6.33;2.30;;;;;;;3.74;100.00;99395.50;5071851;28;20561;-80
2022/12/27 10:04:26;;;;;;;3.17;2.13;;;;;;;3.78;100.00;99391.94;5072645;28;20215;-80
2022/12/27 10:07:06;;;;;;;3.53;2.17;;;;;;;3.90;100.00;99388.16;5070574;28;20234;-81
2022/12/27 10:09:52;;;;;;;6.60;1.80;;;;;;;4.10;100.00;99380.75;5071032;28;20534;-80
2022/12/27 10:12:39;;;;;;;2.60;1.20;;;;;;;4.12;100.00;99374.56;5071410;28;20210;-80
2022/12/27 10:15:23;;;;;;;3.03;1.40;;;;;;;4.21;100.00;99374.34;5071960;28;20211;-80
2022/12/27 10:18:00;;;;;;;2.00;1.10;;;;;;;4.25;100.00;99373.38;5071445;28;20232;-80
2022/12/27 10:20:39;;;;;;;2.60;2.20;;;;;;;4.39;100.00;99371.25;5070481;28;20204;-79
2022/12/27 10:23:12;;;;;;;2.30;2.10;;;;;;;4.43;100.00;99372.03;5072336;28;20216;-79
2022/12/27 10:25:40;;;;;;;3.67;2.70;;;;;;;4.41;100.00;99377.31;5072147;28;20215;-79
2022/12/27 10:28:15;;;;;;;3.20;2.33;;;;;;;4.42;100.00;99381.69;5072204;28;20236;-79
2022/12/27 10:30:44;;;;;;;4.20;2.57;;;;;;;4.63;100.00;99369.75;5068756;28;20208;-79
2022/12/27 10:33:20;;;;;;;4.07;2.03;;;;;;;4.88;100.00;99365.63;5069861;28;20230;-79
2022/12/27 10:35:47;;;;;;;3.93;2.30;;;;;;;4.92;100.00;99352.41;5070386;28;20270;-78
2022/12/27 10:38:13;;;;;;;3.00;2.20;;;;;;;4.98;100.00;99351.34;5071813;28;20211;-78
2022/12/27 10:40:51;;;;;;;3.30;2.47;;;;;;;5.07;100.00;99349.34;5071495;28;20240;-79
2022/12/27 10:43:21;;;;;;;3.27;2.10;;;;;;;5.12;100.00;99344.84;5071547;28;20218;-79
2022/12/27 10:45:49;;;;;;;2.37;1.97;;;;;;;4.97;100.00;99345.28;5070717;28;20224;-79
2022/12/27 10:48:19;;;;;;;4.83;2.10;;;;;;;4.86;100.00;99368.28;5070327;28;20236;-79
2022/12/27 10:50:50;;;;;;;4.07;2.17;;;;;;;4.81;100.00;99362.31;5071090;28;20224;-79
2022/12/27 10:53:29;;;;;;;4.13;1.90;;;;;;;4.74;100.00;99368.59;5071797;28;20212;-80
2022/12/27 10:56:10;;;;;;;2.83;2.00;;;;;;;4.75;100.00;99370.31;5071512;28;20228;-80
2022/12/27 10:58:42;;;;;;;2.30;1.90;;;;;;;4.73;100.00;99374.75;5071915;28;20579;-78
2022/12/27 11:01:23;;;;;;;2.83;1.90;;;;;;;4.82;100.00;99360.56;5070606;28;20212;-80
2022/12/27 11:03:50;;;;;;;3.57;1.97;;;;;;;4.81;100.00;99358.81;5068305;28;20215;-80
2022/12/27 11:06:23;;;;;;;3.17;1.90;;;;;;;4.87;100.00;99361.25;5069802;28;20228;-80
2022/12/27 11:08:51;;;;;;;2.97;1.93;;;;;;;4.85;100.00;99360.47;5070958;28;20718;-81
2022/12/27 11:11:21;;;;;;;3.78;2.30;;;;;;;4.87;100.00;99354.28;5070758;28;20865;-79
2022/12/27 11:13:48;;;;;;;3.55;2.25;;;;;;;4.94;100.00;99350.59;5069815;28;20465;-81
2022/12/27 11:16:18;;;;;;;3.30;2.10;;;;;;;4.91;100.00;99349.81;5071140;28;20229;-81
2022/12/27 11:18:49;;;;;;;3.33;1.73;;;;;;;4.92;100.00;99356.75;5070939;28;20252;-80
2022/12/27 11:21:17;;;;;;;4.03;1.90;;;;;;;4.92;100.00;99352.41;5070985;28;20438;-80
2022/12/27 11:23:49;;;;;;;2.27;1.80;;;;;;;5.06;100.00;99349.41;5070871;28;20300;-81
2022/12/27 11:26:20;;;;;;;4.73;2.30;;;;;;;5.15;100.00;99342.16;5071364;28;20320;-79
2022/12/27 11:28:51;;;;;;;3.23;1.83;;;;;;;5.18;100.00;99336.78;5071274;28;20232;-83
2022/12/27 11:31:26;;;;;;;3.80;2.10;;;;;;;5.18;100.00;99334.19;5071288;28;20296;-79
2022/12/27 11:33:56;;;;;;;3.03;1.70;;;;;;;5.38;100.00;99329.19;5071277;28;20300;-79
2022/12/27 11:36:25;;;;;;;3.43;1.70;;;;;;;5.32;100.00;99318.91;5073763;28;20224;-78
2022/12/27 11:38:51;;;;;;;2.87;2.10;;;;;;;5.26;100.00;99321.69;5071177;28;20202;-79
2022/12/27 11:41:23;;;;;;;3.97;1.80;;;;;;;5.22;100.00;99333.19;5070829;28;20684;-79
2022/12/27 11:43:54;;;;;;;3.00;2.27;;;;;;;5.25;100.00;99327.00;5071711;28;20213;-78
2022/12/27 11:46:27;;;;;;;4.93;1.90;;;;;;;5.26;100.00;99326.94;5070137;28;20226;-79
2022/12/27 11:48:57;;;;;;;3.40;1.77;;;;;;;5.18;100.00;99322.81;5069945;28;20689;-87
2022/12/27 11:51:50;;;;;;;2.90;1.70;;;;;;;5.10;100.00;99324.81;5071781;28;20282;-80
2022/12/27 11:54:42;;;;;;;2.03;1.67;;;;;;;5.11;100.00;99326.53;5071137;28;20256;-81
2022/12/27 11:57:21;;;;;;;2.33;1.70;;;;;;;5.18;100.00;99325.44;5085185;22;20233;-81
2022/12/27 11:59:59;;;;;;;3.83;1.83;;;;;;;5.22;100.00;99320.09;5070279;28;20297;-80
2022/12/27 12:02:56;;;;;;;3.43;1.63;;;;;;;5.29;100.00;99321.63;5070825;28;20217;-79
2022/12/27 12:06:03;;;;;;;3.03;1.70;;;;;;;5.47;100.00;99323.69;5071012;28;20225;-80
2022/12/27 12:09:10;;;;;;;4.43;1.97;;;;;;;5.65;100.00;99320.53;5044650;28;20240;-80
2022/12/27 12:11:55;;;;;;;7.13;1.73;;;;;;;5.92;100.00;99301.31;5050733;28;20585;-80
2022/12/27 12:14:48;;;;;;;2.00;1.27;;;;;;;6.17;100.00;99293.50;5050759;28;20210;-80
2022/12/27 12:17:34;;;;;;;1.70;1.30;;;;;;;6.38;100.00;99287.50;5049615;28;20230;-80
2022/12/27 12:20:24;;;;;;;2.13;1.20;;;;;;;6.42;100.00;99263.72;5050517;28;20211;-79
2022/12/27 12:23:09;;;;;;;2.00;1.20;;;;;;;6.49;99.25;99254.75;5040403;28;20211;-85
2022/12/27 12:26:09;;;;;;;3.17;1.30;;;;;;;6.60;98.84;99257.81;5052791;28;20212;-83
2022/12/27 12:29:24;;;;;;;3.40;1.53;;;;;;;6.65;97.61;99255.91;5054198;28;20598;-84
2022/12/27 12:32:15;;;;;;;2.73;1.30;;;;;;;6.72;98.95;99252.13;5052000;28;20231;-82
2022/12/27 12:34:57;;;;;;;4.20;1.80;;;;;;;6.83;97.27;99244.72;5043128;28;20222;-83
2022/12/27 12:37:47;;;;;;;3.47;1.50;;;;;;;6.88;96.50;99237.53;5053822;28;20228;-82
2022/12/27 12:40:31;;;;;;;2.97;1.50;;;;;;;6.91;95.60;99241.81;5053532;28;20231;-82
2022/12/27 12:43:12;;;;;;;2.03;1.30;;;;;;;6.91;95.91;99237.41;5054104;28;20581;-82
2022/12/27 12:45:56;;;;;;;3.43;1.70;;;;;;;6.92;95.94;99238.28;5052842;28;20207;-84
2022/12/27 12:48:45;;;;;;;1.37;1.10;;;;;;;6.97;92.97;99223.19;5051391;28;20246;-79
2022/12/27 12:51:29;;;;;;;3.10;1.37;;;;;;;7.06;93.28;99225.47;5053165;28;20686;-85
2022/12/27 12:54:18;;;;;;;10.90;3.10;;;;;;;7.14;91.56;99219.00;5054060;28;20219;-78
2022/12/27 12:57:05;;;;;;;4.43;1.60;;;;;;;7.18;91.32;99217.97;5041876;28;20235;-84
2022/12/27 12:59:56;;;;;;;2.83;1.23;;;;;;;7.23;89.83;99213.41;5053217;28;20211;-84
2022/12/27 13:02:49;;;;;;;2.83;1.50;;;;;;;7.30;91.43;99231.50;5053699;28;20220;-83
2022/12/27 13:05:22;;;;;;;4.30;1.40;;;;;;;7.40;91.51;99226.72;5053879;28;20211;-83
2022/12/27 13:08:00;;;;;;;2.17;1.07;;;;;;;7.54;93.30;99241.06;5051032;28;20440;-84
2022/12/27 13:10:44;;;;;;;1.77;1.13;;;;;;;7.59;89.12;99193.53;5051994;28;20218;-80
2022/12/27 13:13:19;;;;;;;4.03;1.50;;;;;;;7.64;89.57;99205.56;5053347;28;20208;-80
2022/12/27 13:15:58;;;;;;;2.43;1.03;;;;;;;7.69;90.64;99218.53;5053179;28;20238;-79
2022/12/27 13:18:35;;;;;;;4.00;1.57;;;;;;;7.67;89.46;99215.13;5051641;28;20227;-85
2022/12/27 13:21:12;;;;;;;4.53;1.07;;;;;;;7.62;86.57;99196.91;5054204;28;20201;-81
2022/12/27 13:23:47;;;;;;;1.53;1.27;;;;;;;7.63;86.77;99195.09;5053884;28;20208;-84
2022/12/27 13:26:21;;;;;;;2.23;1.20;;;;;;;7.67;86.96;99201.97;5053869;28;20204;-89
2022/12/27 13:29:06;;;;;;;1.93;1.20;;;;;;;7.61;88.75;99204.84;5053353;28;20238;-84
2022/12/27 13:31:43;;;;;;;2.97;1.57;;;;;;;7.58;89.23;99215.47;5053503;28;20208;-83